createdAt,value
2019-04-01T00:00:31.298Z,6.30
2019-04-01T00:03:00.698Z,6.20
2019-04-01T00:05:27.970Z,6.20
2019-04-01T00:07:55.973Z,6.30
2019-04-01T00:10:23.388Z,6.30
2019-04-01T00:12:50.940Z,6.20
2019-04-01T00:15:17.973Z,6.30
2019-04-01T00:17:53.837Z,6.20
2019-04-01T00:20:21.605Z,6.20
2019-04-01T00:22:49.624Z,6.10
2019-04-01T00:25:17.259Z,6.10
2019-04-01T00:27:45.234Z,6.10
2019-04-01T00:30:17.273Z,6.70
2019-04-01T00:32:45.880Z,6.00
2019-04-01T00:35:13.358Z,5.90
2019-04-01T00:37:40.498Z,5.90
2019-04-01T00:40:08.023Z,5.80
2019-04-01T00:42:49.270Z,5.80
2019-04-01T00:45:18.502Z,5.70
2019-04-01T00:47:46.028Z,5.60
2019-04-01T00:50:13.827Z,5.60
2019-04-01T00:52:41.475Z,5.60
2019-04-01T00:55:11.113Z,5.60
2019-04-01T00:57:38.417Z,5.50
2019-04-01T01:00:06.061Z,5.50
2019-04-01T01:02:34.731Z,5.60
2019-04-01T01:05:03.286Z,5.60
2019-04-01T01:07:32.287Z,5.70
2019-04-01T01:10:05.298Z,5.90
2019-04-01T01:12:32.917Z,5.50
2019-04-01T01:15:01.397Z,5.40
2019-04-01T01:17:30.822Z,5.50
2019-04-01T01:19:58.989Z,5.40
2019-04-01T01:22:30.644Z,5.30
2019-04-01T01:24:59.304Z,5.30
2019-04-01T01:27:28.031Z,5.40
2019-04-01T01:29:57.032Z,5.40
2019-04-01T01:32:25.638Z,5.50
2019-04-01T01:34:57.294Z,5.40
2019-04-01T01:37:26.335Z,5.40
2019-04-01T01:39:55.698Z,5.50
2019-04-01T01:42:25.095Z,5.40
2019-04-01T01:44:52.657Z,5.30
2019-04-01T01:47:24.979Z,5.20
2019-04-01T01:49:52.835Z,5.40
2019-04-01T01:52:20.710Z,5.20
2019-04-01T01:54:49.702Z,5.20
2019-04-01T01:57:17.491Z,5.30
2019-04-01T01:59:48.706Z,5.20
2019-04-01T02:02:17.514Z,5.20
2019-04-01T02:04:48.041Z,5.20
2019-04-01T02:07:16.320Z,5.30
2019-04-01T02:09:44.711Z,5.00
2019-04-01T02:12:18.471Z,5.00
2019-04-01T02:14:46.190Z,5.00
2019-04-01T02:17:13.944Z,5.00
2019-04-01T02:19:41.910Z,5.00
2019-04-01T02:22:09.249Z,5.00
2019-04-01T02:24:37.136Z,4.90
2019-04-01T02:27:07.950Z,5.10
2019-04-01T02:29:35.617Z,4.90
2019-04-01T02:32:04.179Z,4.90
2019-04-01T02:34:31.660Z,4.90
2019-04-01T02:37:00.398Z,4.80
2019-04-01T02:39:32.812Z,4.90
2019-04-01T02:42:00.519Z,4.90
2019-04-01T02:44:28.856Z,4.70
2019-04-01T02:46:57.601Z,4.70
2019-04-01T02:49:26.150Z,4.70
2019-04-01T02:51:57.145Z,4.80
2019-04-01T02:54:25.489Z,4.80
2019-04-01T02:56:54.344Z,4.70
2019-04-01T02:59:22.765Z,4.80
2019-04-01T03:01:51.514Z,4.80
2019-04-01T03:04:24.710Z,4.80
2019-04-01T03:06:52.363Z,4.70
2019-04-01T03:09:19.668Z,4.60
2019-04-01T03:11:47.043Z,4.50
2019-04-01T03:14:14.007Z,4.60
2019-04-01T03:16:41.591Z,4.60
2019-04-01T03:19:13.868Z,4.60
2019-04-01T03:21:41.207Z,4.60
2019-04-01T03:24:10.055Z,4.50
2019-04-01T03:26:38.320Z,4.60
2019-04-01T03:29:07.162Z,4.60
2019-04-01T03:31:39.500Z,4.60
2019-04-01T03:34:07.067Z,4.60
2019-04-01T03:36:36.179Z,4.40
2019-04-01T03:39:06.212Z,4.40
2019-04-01T03:41:34.830Z,4.40
2019-04-01T03:44:06.754Z,4.40
2019-04-01T03:46:33.994Z,4.40
2019-04-01T03:49:02.976Z,4.30
2019-04-01T03:51:30.708Z,4.40
2019-04-01T03:53:59.448Z,4.40
2019-04-01T03:56:30.521Z,4.40
2019-04-01T03:58:59.297Z,4.40
2019-04-01T04:01:30.022Z,4.30
2019-04-01T04:03:56.787Z,4.40
2019-04-01T04:06:24.911Z,4.40
2019-04-01T04:08:55.907Z,4.20
2019-04-01T04:11:24.850Z,4.40
2019-04-01T04:13:52.132Z,4.30
2019-04-01T04:16:20.542Z,4.20
2019-04-01T04:18:48.607Z,4.20
2019-04-01T04:21:16.825Z,4.20
2019-04-01T04:23:45.737Z,4.20
2019-04-01T04:26:13.828Z,4.10
2019-04-01T04:28:42.208Z,4.10
2019-04-01T04:31:10.438Z,4.20
2019-04-01T04:33:37.938Z,4.10
2019-04-01T04:36:07.418Z,4.30
2019-04-01T04:38:35.174Z,4.00
2019-04-01T04:41:03.440Z,4.00
2019-04-01T04:43:31.361Z,4.00
2019-04-01T04:46:02.192Z,4.00
2019-04-01T04:48:29.283Z,4.10
2019-04-01T04:51:01.530Z,4.00
2019-04-01T04:53:28.942Z,4.00
2019-04-01T04:55:56.138Z,4.00
2019-04-01T04:58:26.790Z,3.80
2019-04-01T05:00:53.981Z,4.00
2019-04-01T05:03:23.374Z,3.90
2019-04-01T05:05:51.631Z,3.80
2019-04-01T05:08:19.874Z,3.90
2019-04-01T05:10:48.017Z,3.80
2019-04-01T05:13:15.502Z,3.70
2019-04-01T05:15:48.714Z,3.80
2019-04-01T05:18:15.919Z,3.80
2019-04-01T05:20:45.295Z,3.80
2019-04-01T05:23:12.469Z,3.80
2019-04-01T05:25:40.643Z,3.80
2019-04-01T05:28:14.405Z,4.10
2019-04-01T05:30:43.881Z,3.80
2019-04-01T05:33:13.148Z,3.80
2019-04-01T05:35:40.432Z,3.80
2019-04-01T05:38:07.660Z,4.00
2019-04-01T05:40:34.825Z,3.90
2019-04-01T05:43:10.428Z,3.70
2019-04-01T05:45:37.631Z,3.70
2019-04-01T05:48:04.807Z,3.70
2019-04-01T05:50:31.990Z,3.70
2019-04-01T05:52:59.035Z,3.70
2019-04-01T05:55:31.680Z,3.60
2019-04-01T05:58:00.199Z,3.50
2019-04-01T06:00:39.410Z,3.60
2019-04-01T06:03:11.094Z,3.70
2019-04-01T06:05:39.583Z,3.80
2019-04-01T06:08:08.678Z,3.80
2019-04-01T06:10:37.578Z,3.70
2019-04-01T06:13:05.856Z,3.80
2019-04-01T06:15:36.904Z,3.90
2019-04-01T06:18:04.372Z,3.90
2019-04-01T06:20:32.821Z,4.00
2019-04-01T06:23:01.639Z,4.00
2019-04-01T06:25:30.309Z,4.00
2019-04-01T06:28:00.742Z,3.80
2019-04-01T06:30:29.174Z,3.90
2019-04-01T06:32:56.987Z,4.00
2019-04-01T06:35:25.349Z,4.00
2019-04-01T06:37:54.907Z,4.00
2019-04-01T06:40:24.536Z,4.10
2019-04-01T06:42:54.932Z,4.20
2019-04-01T06:45:22.073Z,4.30
2019-04-01T06:47:49.227Z,4.60
2019-04-01T06:50:17.986Z,4.70
2019-04-01T06:52:47.983Z,4.50
2019-04-01T06:55:16.595Z,4.50
2019-04-01T06:57:44.697Z,4.50
2019-04-01T07:00:13.460Z,4.70
2019-04-01T07:02:41.919Z,4.80
2019-04-01T07:05:12.760Z,4.90
2019-04-01T07:07:41.431Z,5.10
2019-04-01T07:10:10.150Z,5.10
2019-04-01T07:12:38.397Z,5.30
2019-04-01T07:15:06.799Z,5.30
2019-04-01T07:17:34.958Z,5.30
2019-04-01T07:20:08.981Z,5.30
2019-04-01T07:22:37.442Z,5.60
2019-04-01T07:25:05.688Z,5.80
2019-04-01T07:27:34.210Z,5.90
2019-04-01T07:30:02.695Z,6.00
2019-04-01T07:32:34.155Z,6.00
2019-04-01T07:35:02.494Z,6.10
2019-04-01T07:37:30.757Z,6.30
2019-04-01T07:39:58.981Z,6.40
2019-04-01T07:42:27.129Z,6.50
2019-04-01T07:44:59.660Z,6.70
2019-04-01T07:47:27.412Z,6.90
2019-04-01T07:49:54.587Z,7.20
2019-04-01T07:52:22.885Z,7.40
2019-04-01T07:54:50.073Z,7.60
2019-04-01T07:57:23.330Z,7.90
2019-04-01T07:59:50.623Z,8.20
2019-04-01T08:02:17.824Z,8.90
2019-04-01T08:04:46.214Z,10.20
2019-04-01T08:07:14.601Z,11.80
2019-04-01T08:09:47.405Z,13.30
2019-04-01T08:12:14.678Z,14.70
2019-04-01T08:14:41.969Z,16.10
2019-04-01T08:17:09.150Z,17.10
2019-04-01T08:19:36.344Z,18.10
2019-04-01T08:22:03.739Z,18.60
2019-04-01T08:24:35.362Z,19.00
2019-04-01T08:27:07.313Z,19.70
2019-04-01T08:29:34.797Z,20.20
2019-04-01T08:32:02.495Z,19.70
2019-04-01T08:34:30.555Z,18.50
2019-04-01T08:36:59.935Z,17.20
2019-04-01T08:39:27.114Z,15.80
2019-04-01T08:41:55.421Z,14.70
2019-04-01T08:44:23.793Z,13.80
2019-04-01T08:46:52.416Z,12.80
2019-04-01T08:49:23.573Z,12.50
2019-04-01T08:51:52.233Z,12.00
2019-04-01T08:54:20.629Z,11.60
2019-04-01T08:56:48.918Z,11.60
2019-04-01T08:59:17.115Z,11.80
2019-04-01T09:01:48.993Z,11.30
2019-04-01T09:04:16.191Z,11.30
2019-04-01T09:06:44.501Z,11.30
2019-04-01T09:09:12.876Z,11.20
2019-04-01T09:11:41.669Z,11.20
2019-04-01T09:14:09.909Z,11.10
2019-04-01T09:16:39.975Z,11.00
2019-04-01T09:19:08.284Z,11.00
2019-04-01T09:21:36.495Z,11.10
2019-04-01T09:24:04.702Z,11.20
2019-04-01T09:26:33.618Z,11.30
2019-04-01T09:29:05.960Z,11.40
2019-04-01T09:31:34.144Z,11.50
2019-04-01T09:34:02.326Z,11.50
2019-04-01T09:36:31.416Z,11.60
2019-04-01T09:38:59.841Z,11.60
2019-04-01T09:41:32.619Z,11.70
2019-04-01T09:43:59.829Z,11.80
2019-04-01T09:46:28.203Z,11.90
2019-04-01T09:48:56.467Z,12.00
2019-04-01T09:51:24.804Z,12.00
2019-04-01T09:53:52.115Z,12.10
2019-04-01T09:56:23.828Z,12.30
2019-04-01T09:58:52.378Z,12.40
2019-04-01T10:01:20.756Z,12.60
2019-04-01T10:03:48.011Z,12.70
2019-04-01T10:06:16.499Z,12.70
2019-04-01T10:08:48.150Z,12.80
2019-04-01T10:11:16.348Z,12.80
2019-04-01T10:13:44.700Z,13.30
2019-04-01T10:16:11.998Z,12.80
2019-04-01T10:18:40.305Z,13.00
2019-04-01T10:21:13.343Z,13.10
2019-04-01T10:23:41.537Z,13.20
2019-04-01T10:26:09.876Z,13.30
2019-04-01T10:28:38.106Z,13.30
2019-04-01T10:31:06.711Z,13.40
2019-04-01T10:33:40.548Z,13.60
2019-04-01T10:36:08.120Z,13.60
2019-04-01T10:38:35.343Z,13.70
2019-04-01T10:41:02.832Z,14.20
2019-04-01T10:43:31.025Z,13.70
2019-04-01T10:46:03.987Z,13.80
2019-04-01T10:48:31.203Z,13.80
2019-04-01T10:50:58.525Z,13.80
2019-04-01T10:53:25.762Z,14.00
2019-04-01T10:55:53.137Z,14.10
2019-04-01T10:58:21.417Z,14.30
2019-04-01T11:00:51.063Z,14.20
2019-04-01T11:03:19.534Z,14.20
2019-04-01T11:05:47.981Z,14.40
2019-04-01T11:08:16.232Z,14.50
2019-04-01T11:10:44.560Z,14.40
2019-04-01T11:13:18.875Z,14.50
2019-04-01T11:15:46.202Z,14.60
2019-04-01T11:18:13.790Z,14.70
2019-04-01T11:20:41.028Z,14.20
2019-04-01T11:23:09.338Z,14.80
2019-04-01T11:25:37.943Z,15.00
2019-04-01T11:28:07.609Z,15.00
2019-04-01T11:30:37.113Z,15.00
2019-04-01T11:33:07.668Z,15.30
2019-04-01T11:35:36.908Z,15.10
2019-04-01T11:38:05.359Z,15.20
2019-04-01T11:40:34.261Z,15.20
2019-04-01T11:43:05.095Z,15.30
2019-04-01T11:45:33.704Z,15.40
2019-04-01T11:48:01.526Z,15.40
2019-04-01T11:50:30.152Z,15.50
2019-04-01T11:53:02.718Z,15.60
2019-04-01T11:55:29.945Z,15.70
2019-04-01T11:57:57.240Z,15.60
2019-04-01T12:00:26.383Z,15.60
2019-04-01T12:02:54.754Z,15.80
2019-04-01T12:05:25.741Z,15.90
2019-04-01T12:07:55.938Z,16.10
2019-04-01T12:10:23.112Z,16.20
2019-04-01T12:12:51.314Z,16.20
2019-04-01T12:15:19.518Z,16.40
2019-04-01T12:17:50.402Z,16.10
2019-04-01T12:20:18.625Z,16.10
2019-04-01T12:22:46.813Z,16.10
2019-04-01T12:25:15.012Z,16.10
2019-04-01T12:27:45.028Z,16.20
2019-04-01T12:30:14.503Z,16.30
2019-04-01T12:32:42.788Z,16.30
2019-04-01T12:35:12.011Z,16.30
2019-04-01T12:37:39.707Z,16.50
2019-04-01T12:40:07.165Z,16.50
2019-04-01T12:42:41.496Z,16.40
2019-04-01T12:45:10.502Z,16.40
2019-04-01T12:47:42.580Z,16.30
2019-04-01T12:50:09.348Z,16.40
2019-04-01T12:52:41.011Z,16.50
2019-04-01T12:55:09.600Z,16.60
2019-04-01T12:57:38.033Z,16.60
2019-04-01T13:00:08.250Z,16.70
2019-04-01T13:02:36.712Z,16.70
2019-04-01T13:05:05.319Z,16.70
2019-04-01T13:07:35.889Z,16.80
2019-04-01T13:10:04.947Z,16.80
2019-04-01T13:12:33.235Z,16.90
2019-04-01T13:15:01.439Z,16.90
2019-04-01T13:17:29.618Z,16.90
2019-04-01T13:20:04.271Z,17.10
2019-04-01T13:22:32.721Z,16.90
2019-04-01T13:25:05.237Z,16.90
2019-04-01T13:27:31.828Z,17.00
2019-04-01T13:30:06.248Z,17.00
2019-04-01T13:32:33.803Z,17.00
2019-04-01T13:35:01.348Z,17.20
2019-04-01T13:37:30.154Z,17.00
2019-04-01T13:40:02.173Z,17.00
2019-04-01T13:42:29.863Z,17.10
2019-04-01T13:44:57.755Z,17.10
2019-04-01T13:47:26.332Z,17.10
2019-04-01T13:49:55.294Z,17.40
2019-04-01T13:52:23.834Z,17.20
2019-04-01T13:54:54.880Z,17.30
2019-04-01T13:57:23.028Z,17.20
2019-04-01T13:59:51.786Z,17.40
2019-04-01T14:02:20.816Z,17.10
2019-04-01T14:04:49.983Z,17.30
2019-04-01T14:07:18.940Z,16.90
2019-04-01T14:09:47.378Z,17.00
2019-04-01T14:12:16.165Z,17.10
2019-04-01T14:14:44.663Z,17.20
2019-04-01T14:17:11.934Z,17.20
2019-04-01T14:19:42.947Z,17.20
2019-04-01T14:22:11.540Z,17.10
2019-04-01T14:24:42.652Z,17.00
2019-04-01T14:27:10.453Z,17.00
2019-04-01T14:29:38.668Z,17.10
2019-04-01T14:32:10.038Z,17.10
2019-04-01T14:34:42.925Z,17.10
2019-04-01T14:37:14.359Z,17.20
2019-04-01T14:39:42.254Z,16.60
2019-04-01T14:42:15.074Z,17.10
2019-04-01T14:44:58.361Z,17.10
2019-04-01T14:47:32.662Z,17.10
2019-04-01T14:50:00.831Z,17.00
2019-04-01T14:52:32.700Z,17.00
2019-04-01T14:54:57.756Z,17.00
2019-04-01T14:57:30.628Z,17.20
2019-04-01T14:59:59.202Z,16.80
2019-04-01T15:02:27.453Z,17.00
2019-04-01T15:05:14.563Z,17.00
2019-04-01T15:07:57.677Z,17.00
2019-04-01T15:10:41.017Z,17.00
2019-04-01T15:13:18.783Z,17.00
2019-04-01T15:15:48.025Z,16.80
2019-04-01T15:18:17.070Z,16.90
2019-04-01T15:20:44.260Z,17.00
2019-04-01T15:23:11.661Z,17.00
2019-04-01T15:25:43.080Z,17.20
2019-04-01T15:28:21.662Z,17.00
2019-04-01T15:30:49.286Z,17.00
2019-04-01T15:33:17.055Z,17.10
2019-04-01T15:35:44.502Z,17.20
2019-04-01T15:38:13.022Z,17.40
2019-04-01T15:40:47.217Z,17.00
2019-04-01T15:43:15.453Z,17.00
2019-04-01T15:45:43.035Z,17.00
2019-04-01T15:48:13.438Z,17.00
2019-04-01T15:50:40.820Z,17.00
2019-04-01T15:53:08.504Z,16.90
2019-04-01T15:55:36.139Z,16.90
2019-04-01T15:58:03.307Z,16.90
2019-04-01T16:00:32.102Z,16.90
2019-04-01T16:02:59.738Z,16.90
2019-04-01T16:05:30.381Z,16.90
2019-04-01T16:07:57.113Z,17.10
2019-04-01T16:10:24.370Z,16.90
2019-04-01T16:12:51.847Z,16.90
2019-04-01T16:15:19.369Z,16.90
2019-04-01T16:17:54.102Z,16.70
2019-04-01T16:20:26.901Z,16.80
2019-04-01T16:22:54.351Z,16.60
2019-04-01T16:25:21.526Z,16.60
2019-04-01T16:27:48.952Z,16.60
2019-04-01T16:30:16.410Z,16.50
2019-04-01T16:32:43.970Z,16.40
2019-04-01T16:35:11.748Z,16.50
2019-04-01T16:37:39.683Z,16.90
2019-04-01T16:40:07.144Z,16.50
2019-04-01T16:42:34.632Z,16.40
2019-04-01T16:45:06.522Z,16.40
2019-04-01T16:47:33.866Z,16.40
2019-04-01T16:50:01.055Z,16.30
2019-04-01T16:52:29.536Z,16.20
2019-04-01T16:54:58.280Z,16.40
2019-04-01T16:57:30.322Z,16.20
2019-04-01T16:59:59.425Z,15.90
2019-04-01T17:02:27.904Z,16.20
2019-04-01T17:04:56.522Z,15.90
2019-04-01T17:07:24.834Z,15.90
2019-04-01T17:09:58.298Z,15.90
2019-04-01T17:12:27.981Z,15.90
2019-04-01T17:14:57.181Z,15.80
2019-04-01T17:17:25.786Z,15.80
2019-04-01T17:19:57.327Z,15.70
2019-04-01T17:22:25.539Z,15.60
2019-04-01T17:24:54.147Z,15.50
2019-04-01T17:27:22.768Z,15.50
2019-04-01T17:29:51.108Z,15.50
2019-04-01T17:32:22.710Z,15.30
2019-04-01T17:34:49.907Z,15.20
2019-04-01T17:37:18.417Z,15.30
2019-04-01T17:39:46.693Z,15.20
2019-04-01T17:42:16.929Z,15.30
2019-04-01T17:44:50.136Z,15.10
2019-04-01T17:47:30.491Z,15.30
2019-04-01T17:49:57.823Z,15.00
2019-04-01T17:52:34.953Z,15.00
2019-04-01T17:55:05.149Z,15.00
2019-04-01T17:57:32.395Z,14.90
2019-04-01T18:00:00.238Z,14.80
2019-04-01T18:02:35.187Z,14.80
2019-04-01T18:05:05.561Z,14.80
2019-04-01T18:07:36.510Z,14.80
2019-04-01T18:10:05.258Z,14.70
2019-04-01T18:12:37.985Z,14.60
2019-04-01T18:15:06.562Z,14.60
2019-04-01T18:17:35.028Z,14.60
2019-04-01T18:20:05.079Z,14.50
2019-04-01T18:22:37.464Z,14.40
2019-04-01T18:25:10.285Z,14.30
2019-04-01T18:27:37.714Z,14.20
2019-04-01T18:30:06.466Z,14.30
2019-04-01T18:32:35.036Z,14.00
2019-04-01T18:35:13.744Z,13.90
2019-04-01T18:37:41.025Z,13.60
2019-04-01T18:40:08.702Z,13.80
2019-04-01T18:42:36.149Z,13.80
2019-04-01T18:45:04.063Z,13.70
2019-04-01T18:47:31.656Z,13.70
2019-04-01T18:50:01.180Z,13.60
2019-04-01T18:52:29.468Z,13.50
2019-04-01T18:54:57.939Z,13.50
2019-04-01T18:57:27.320Z,13.40
2019-04-01T18:59:56.011Z,13.20
2019-04-01T19:02:26.384Z,13.30
2019-04-01T19:04:58.142Z,13.20
2019-04-01T19:07:29.339Z,13.50
2019-04-01T19:10:11.308Z,13.10
2019-04-01T19:12:44.996Z,13.00
2019-04-01T19:15:13.798Z,13.00
2019-04-01T19:17:41.082Z,12.90
2019-04-01T19:20:11.785Z,12.80
2019-04-01T19:22:39.290Z,12.80
2019-04-01T19:25:06.502Z,12.70
2019-04-01T19:27:33.792Z,12.60
2019-04-01T19:30:01.016Z,12.60
2019-04-01T19:32:28.553Z,12.50
2019-04-01T19:34:57.723Z,12.50
2019-04-01T19:37:27.695Z,12.40
2019-04-01T19:39:55.317Z,12.30
2019-04-01T19:42:23.937Z,12.30
2019-04-01T19:44:51.423Z,12.20
2019-04-01T19:47:20.767Z,12.10
2019-04-01T19:49:49.012Z,12.10
2019-04-01T19:52:17.591Z,12.00
2019-04-01T19:54:46.431Z,11.90
2019-04-01T19:57:13.765Z,11.80
2019-04-01T19:59:42.199Z,12.10
2019-04-01T20:02:10.736Z,11.70
2019-04-01T20:04:39.008Z,11.70
2019-04-01T20:07:08.082Z,11.60
2019-04-01T20:09:36.688Z,11.50
2019-04-01T20:12:05.033Z,11.50
2019-04-01T20:14:33.362Z,11.40
2019-04-01T20:17:02.056Z,11.40
2019-04-01T20:19:30.870Z,11.30
2019-04-01T20:21:59.524Z,11.20
2019-04-01T20:24:30.210Z,11.70
2019-04-01T20:26:58.646Z,11.10
2019-04-01T20:29:29.991Z,11.40
2019-04-01T20:31:56.147Z,11.00
2019-04-01T20:34:23.380Z,11.00
2019-04-01T20:36:52.542Z,10.90
2019-04-01T20:39:21.182Z,10.80
2019-04-01T20:41:49.906Z,10.80
2019-04-01T20:44:18.673Z,10.80
2019-04-01T20:46:46.851Z,11.40
2019-04-01T20:49:15.162Z,10.70
2019-04-01T20:51:43.398Z,10.60
2019-04-01T20:54:12.020Z,10.50
2019-04-01T20:56:40.489Z,10.40
2019-04-01T20:59:10.267Z,10.30
2019-04-01T21:01:38.776Z,10.30
2019-04-01T21:04:06.957Z,10.30
2019-04-01T21:06:35.951Z,10.20
2019-04-01T21:09:06.934Z,10.20
2019-04-01T21:11:35.565Z,10.10
2019-04-01T21:14:04.047Z,10.10
2019-04-01T21:16:32.500Z,10.10
2019-04-01T21:19:00.776Z,10.00
2019-04-01T21:21:28.963Z,9.60
2019-04-01T21:23:59.732Z,9.90
2019-04-01T21:26:27.808Z,9.90
2019-04-01T21:28:56.096Z,9.90
2019-04-01T21:31:24.293Z,9.90
2019-04-01T21:33:52.903Z,9.90
2019-04-01T21:36:21.218Z,9.90
2019-04-01T21:38:49.480Z,9.70
2019-04-01T21:41:20.317Z,9.60
2019-04-01T21:43:46.851Z,9.60
2019-04-01T21:46:14.599Z,9.50
2019-04-01T21:48:42.919Z,9.50
2019-04-01T21:51:13.439Z,9.50
2019-04-01T21:53:44.220Z,9.40
2019-04-01T21:56:11.527Z,9.60
2019-04-01T21:58:38.749Z,9.30
2019-04-01T22:01:07.213Z,9.30
2019-04-01T22:03:36.960Z,9.00
2019-04-01T22:06:05.364Z,9.20
2019-04-01T22:08:32.627Z,9.20
2019-04-01T22:11:01.209Z,9.40
2019-04-01T22:13:30.103Z,9.10
2019-04-01T22:15:58.340Z,9.00
2019-04-01T22:18:26.617Z,9.00
2019-04-01T22:20:54.795Z,9.00
2019-04-01T22:23:23.129Z,8.90
2019-04-01T22:25:51.403Z,8.90
2019-04-01T22:28:18.600Z,8.80
2019-04-01T22:30:48.410Z,8.80
2019-04-01T22:33:16.644Z,8.80
2019-04-01T22:35:45.411Z,8.70
2019-04-01T22:38:24.383Z,8.70
2019-04-01T22:40:43.099Z,8.70
2019-04-01T22:43:11.421Z,8.60
2019-04-01T22:45:39.628Z,8.60
2019-04-01T22:48:07.907Z,8.60
2019-04-01T22:50:38.270Z,8.70
2019-04-01T22:53:06.590Z,8.50
2019-04-01T22:55:33.852Z,8.50
2019-04-01T22:58:02.485Z,8.50
2019-04-01T23:00:29.846Z,8.50
2019-04-01T23:02:58.300Z,8.40
2019-04-01T23:05:27.117Z,8.40
2019-04-01T23:07:54.186Z,8.60
2019-04-01T23:10:22.485Z,8.30
2019-04-01T23:12:51.605Z,8.30
2019-04-01T23:15:19.958Z,8.30
2019-04-01T23:17:48.324Z,8.30
2019-04-01T23:20:16.787Z,8.20
2019-04-01T23:22:45.459Z,8.40
2019-04-01T23:25:13.719Z,8.20
2019-04-01T23:27:42.010Z,8.20
2019-04-01T23:30:11.849Z,8.20
2019-04-01T23:32:41.656Z,8.40
2019-04-01T23:35:09.405Z,8.40
2019-04-01T23:37:38.455Z,8.40
2019-04-01T23:40:07.200Z,8.10
2019-04-01T23:42:37.729Z,8.10
2019-04-01T23:45:06.375Z,8.50
2019-04-01T23:47:34.942Z,8.00
2019-04-01T23:50:03.929Z,8.00
2019-04-01T23:52:32.150Z,8.40
2019-04-01T23:55:00.742Z,7.90
2019-04-01T23:57:29.263Z,8.10
2019-04-01T23:59:57.737Z,7.80
